createdAt,value
2022-10-22T00:02:22.235Z,15.96
2022-10-22T00:05:12.254Z,15.89
2022-10-22T00:08:00.138Z,15.87
2022-10-22T00:10:48.074Z,15.98
2022-10-22T00:13:36.014Z,16.04
2022-10-22T00:16:23.894Z,15.96
2022-10-22T00:19:13.246Z,15.88
2022-10-22T00:22:05.549Z,15.98
2022-10-22T00:24:53.408Z,15.99
2022-10-22T00:27:41.767Z,15.89
2022-10-22T00:30:30.016Z,15.91
2022-10-22T00:33:17.912Z,16.02
2022-10-22T00:36:06.221Z,16.05
2022-10-22T00:38:55.527Z,15.99
2022-10-22T00:41:43.532Z,15.81
2022-10-22T00:45:05.285Z,15.85
2022-10-22T00:47:58.571Z,15.93
2022-10-22T00:50:50.440Z,15.68
2022-10-22T00:53:42.422Z,15.92
2022-10-22T00:56:31.962Z,15.90
2022-10-22T00:59:19.848Z,15.83
2022-10-22T01:02:07.782Z,15.78
2022-10-22T01:04:55.821Z,15.79
2022-10-22T01:07:46.086Z,15.68
2022-10-22T01:10:50.751Z,15.68
2022-10-22T01:13:52.898Z,15.69
2022-10-22T01:16:50.024Z,15.59
2022-10-22T01:20:02.619Z,15.54
2022-10-22T01:22:59.672Z,15.60
2022-10-22T01:25:54.802Z,15.71
2022-10-22T01:28:58.096Z,15.61
2022-10-22T01:31:49.932Z,15.54
2022-10-22T01:34:42.095Z,15.45
2022-10-22T01:37:33.787Z,15.47
2022-10-22T01:40:24.059Z,15.53
2022-10-22T01:43:12.869Z,15.51
2022-10-22T01:46:05.552Z,15.29
2022-10-22T01:49:07.849Z,15.40
2022-10-22T01:52:04.128Z,15.37
2022-10-22T01:54:56.297Z,15.47
2022-10-22T01:57:50.967Z,15.19
2022-10-22T02:00:45.815Z,15.38
2022-10-22T02:03:42.874Z,15.37
2022-10-22T02:06:33.463Z,15.33
2022-10-22T02:09:23.941Z,15.34
2022-10-22T02:12:12.750Z,15.22
2022-10-22T02:15:03.776Z,15.22
2022-10-22T02:17:54.075Z,15.11
2022-10-22T02:20:43.549Z,14.78
2022-10-22T02:23:31.465Z,15.13
2022-10-22T02:26:25.977Z,15.20
2022-10-22T02:29:19.705Z,15.16
2022-10-22T02:32:10.231Z,15.09
2022-10-22T02:35:00.444Z,15.02
2022-10-22T02:37:51.010Z,15.01
2022-10-22T02:40:39.309Z,15.02
2022-10-22T02:43:29.552Z,14.99
2022-10-22T02:46:17.470Z,14.87
2022-10-22T02:49:05.506Z,14.42
2022-10-22T02:51:53.399Z,14.84
2022-10-22T02:54:42.700Z,14.94
2022-10-22T02:57:30.598Z,14.74
2022-10-22T03:00:18.640Z,14.82
2022-10-22T03:03:06.518Z,14.90
2022-10-22T03:05:54.446Z,14.82
2022-10-22T03:08:42.732Z,14.72
2022-10-22T03:11:31.996Z,14.82
2022-10-22T03:14:19.895Z,14.79
2022-10-22T03:17:07.825Z,14.79
2022-10-22T03:19:55.734Z,14.86
2022-10-22T03:22:45.604Z,14.97
2022-10-22T03:25:34.548Z,14.90
2022-10-22T03:28:24.009Z,14.78
2022-10-22T03:31:11.889Z,14.86
2022-10-22T03:33:59.771Z,14.83
2022-10-22T03:36:48.531Z,14.70
2022-10-22T03:39:38.020Z,14.76
2022-10-22T03:42:25.903Z,14.95
2022-10-22T03:45:15.555Z,15.07
2022-10-22T03:48:03.446Z,15.00
2022-10-22T03:50:51.336Z,14.91
2022-10-22T03:53:39.242Z,14.79
2022-10-22T03:56:27.263Z,14.72
2022-10-22T03:59:15.194Z,14.71
2022-10-22T04:02:04.856Z,14.73
2022-10-22T04:04:52.788Z,14.70
2022-10-22T04:07:40.979Z,14.63
2022-10-22T04:10:29.107Z,14.49
2022-10-22T04:13:17.005Z,14.49
2022-10-22T04:16:09.283Z,14.51
2022-10-22T04:18:58.694Z,14.46
2022-10-22T04:21:46.579Z,14.19
2022-10-22T04:24:34.553Z,14.27
2022-10-22T04:27:22.620Z,14.18
2022-10-22T04:30:11.497Z,14.24
2022-10-22T04:32:59.395Z,14.24
2022-10-22T04:35:48.877Z,14.26
2022-10-22T04:38:36.800Z,14.37
2022-10-22T04:41:26.666Z,14.30
2022-10-22T04:44:16.757Z,14.31
2022-10-22T04:47:06.365Z,14.20
2022-10-22T04:49:54.291Z,14.26
2022-10-22T04:52:43.564Z,14.16
2022-10-22T04:58:24.317Z,14.37
2022-10-22T05:01:13.944Z,14.46
2022-10-22T05:04:03.725Z,14.46
2022-10-22T05:06:52.076Z,14.67
2022-10-22T05:09:41.338Z,14.57
2022-10-22T05:12:30.839Z,14.50
2022-10-22T05:15:18.784Z,14.64
2022-10-22T05:18:06.847Z,14.54
2022-10-22T05:20:54.735Z,14.56
2022-10-22T05:23:43.598Z,14.53
2022-10-22T05:26:32.839Z,14.59
2022-10-22T05:29:21.657Z,14.61
2022-10-22T05:32:09.560Z,14.59
2022-10-22T05:34:57.450Z,14.43
2022-10-22T05:37:45.362Z,14.49
2022-10-22T05:40:33.295Z,14.54
2022-10-22T05:43:22.498Z,14.44
2022-10-22T05:46:12.614Z,14.47
2022-10-22T05:49:02.202Z,14.64
2022-10-22T05:51:50.172Z,14.54
2022-10-22T05:54:38.046Z,14.64
2022-10-22T05:57:25.916Z,14.49
2022-10-22T06:00:16.663Z,14.58
2022-10-22T06:03:04.740Z,14.43
2022-10-22T06:05:35.788Z,14.52
2022-10-22T06:08:04.005Z,14.67
2022-10-22T06:10:32.158Z,14.71
2022-10-22T06:13:01.448Z,14.77
2022-10-22T06:15:30.516Z,14.69
2022-10-22T06:17:58.096Z,14.79
2022-10-22T06:20:25.694Z,14.73
2022-10-22T06:22:53.325Z,14.70
2022-10-22T06:25:20.963Z,14.60
2022-10-22T06:27:51.553Z,14.65
2022-10-22T06:30:19.283Z,14.71
2022-10-22T06:32:48.229Z,14.83
2022-10-22T06:35:15.969Z,14.91
2022-10-22T06:37:43.735Z,15.01
2022-10-22T06:40:12.416Z,14.86
2022-10-22T06:42:40.288Z,15.08
2022-10-22T06:45:09.734Z,15.09
2022-10-22T06:47:37.411Z,15.16
2022-10-22T06:50:07.688Z,15.24
2022-10-22T06:52:35.323Z,15.23
2022-10-22T06:55:02.932Z,15.23
2022-10-22T06:57:31.492Z,15.24
2022-10-22T06:59:59.179Z,15.15
2022-10-22T07:02:26.857Z,15.13
2022-10-22T07:04:54.464Z,15.17
2022-10-22T07:07:23.436Z,15.00
2022-10-22T07:09:51.615Z,15.05
2022-10-22T07:12:19.287Z,15.10
2022-10-22T07:14:46.903Z,15.29
2022-10-22T07:17:14.509Z,15.27
2022-10-22T07:19:42.201Z,15.34
2022-10-22T07:22:09.865Z,15.30
2022-10-22T07:24:38.799Z,15.36
2022-10-22T07:27:09.442Z,15.44
2022-10-22T07:29:38.686Z,15.48
2022-10-22T07:32:06.706Z,15.53
2022-10-22T07:34:34.345Z,15.54
2022-10-22T07:37:01.959Z,15.51
2022-10-22T07:39:29.657Z,15.54
2022-10-22T07:41:58.634Z,15.54
2022-10-22T07:44:26.359Z,15.55
2022-10-22T07:46:54.019Z,15.50
2022-10-22T07:49:21.649Z,15.53
2022-10-22T07:51:49.293Z,15.67
2022-10-22T07:54:16.910Z,15.73
2022-10-22T07:56:44.569Z,15.71
2022-10-22T07:59:13.543Z,15.65
2022-10-22T08:01:41.378Z,15.64
2022-10-22T08:04:09.897Z,15.71
2022-10-22T08:06:38.510Z,15.84
2022-10-22T08:09:06.305Z,15.82
2022-10-22T08:11:34.363Z,15.96
2022-10-22T08:14:02.045Z,16.12
2022-10-22T08:16:31.396Z,16.08
2022-10-22T08:18:59.050Z,16.41
2022-10-22T08:21:27.948Z,16.41
2022-10-22T08:23:55.689Z,16.49
2022-10-22T08:26:23.346Z,16.50
2022-10-22T08:28:51.005Z,16.60
2022-10-22T08:31:18.626Z,16.71
2022-10-22T08:33:47.612Z,16.81
2022-10-22T08:36:15.647Z,16.77
2022-10-22T08:38:43.297Z,16.96
2022-10-22T08:41:14.122Z,17.07
2022-10-22T08:43:52.715Z,17.19
2022-10-22T08:46:43.772Z,17.17
2022-10-22T08:49:19.854Z,17.33
2022-10-22T08:51:47.830Z,17.23
2022-10-22T08:54:23.840Z,17.24
2022-10-22T08:57:05.949Z,17.33
2022-10-22T08:59:38.861Z,17.11
2022-10-22T09:02:21.992Z,17.30
2022-10-22T09:04:59.807Z,17.33
2022-10-22T09:07:27.404Z,17.38
2022-10-22T09:09:56.662Z,17.49
2022-10-22T09:12:26.509Z,17.21
2022-10-22T09:14:54.223Z,17.29
2022-10-22T09:17:33.795Z,17.23
2022-10-22T09:20:15.800Z,17.19
2022-10-22T09:22:51.357Z,17.26
2022-10-22T09:25:22.555Z,17.27
2022-10-22T09:27:52.452Z,17.35
2022-10-22T09:30:22.969Z,17.48
2022-10-22T09:32:53.070Z,17.49
2022-10-22T09:35:24.417Z,17.50
2022-10-22T09:37:54.591Z,17.50
2022-10-22T09:40:22.819Z,17.70
2022-10-22T09:42:51.032Z,17.86
2022-10-22T09:45:25.702Z,17.81
2022-10-22T09:48:10.444Z,17.78
2022-10-22T09:50:45.117Z,17.98
2022-10-22T09:53:15.689Z,18.11
2022-10-22T09:55:43.682Z,18.10
2022-10-22T09:58:13.325Z,18.22
2022-10-22T10:00:42.216Z,18.36
2022-10-22T10:03:17.667Z,18.41
2022-10-22T10:05:49.214Z,18.64
2022-10-22T10:08:18.465Z,18.66
2022-10-22T10:10:49.014Z,18.79
2022-10-22T10:13:31.499Z,19.02
2022-10-22T10:16:09.565Z,18.99
2022-10-22T10:18:50.846Z,18.99
2022-10-22T10:21:27.398Z,18.97
2022-10-22T10:24:01.373Z,18.92
2022-10-22T10:26:36.049Z,18.60
2022-10-22T10:29:22.129Z,18.45
2022-10-22T10:32:08.257Z,18.51
2022-10-22T10:34:46.860Z,18.63
2022-10-22T10:37:22.864Z,18.66
2022-10-22T10:40:10.625Z,18.61
2022-10-22T10:42:44.420Z,18.71
2022-10-22T10:45:21.578Z,18.75
2022-10-22T10:48:06.810Z,18.58
2022-10-22T10:50:46.047Z,18.78
2022-10-22T10:53:25.730Z,19.21
2022-10-22T10:56:00.505Z,19.62
2022-10-22T10:58:35.238Z,19.39
2022-10-22T11:01:10.164Z,19.14
2022-10-22T11:04:12.195Z,19.28
2022-10-22T11:06:40.728Z,19.38
2022-10-22T11:09:19.899Z,19.08
2022-10-22T11:11:52.560Z,19.11
2022-10-22T11:14:25.268Z,19.39
2022-10-22T11:17:01.541Z,19.33
2022-10-22T11:19:52.276Z,19.60
2022-10-22T11:22:27.278Z,19.67
2022-10-22T11:25:02.251Z,19.87
2022-10-22T11:27:34.486Z,20.42
2022-10-22T11:30:05.929Z,20.30
2022-10-22T11:32:34.208Z,19.77
2022-10-22T11:35:05.914Z,19.76
2022-10-22T11:37:39.046Z,19.63
2022-10-22T11:40:15.805Z,19.49
2022-10-22T11:42:47.079Z,19.42
2022-10-22T11:45:29.788Z,19.32
2022-10-22T11:48:06.623Z,19.42
2022-10-22T11:50:50.820Z,19.53
2022-10-22T11:53:21.820Z,19.75
2022-10-22T11:55:52.475Z,20.06
2022-10-22T11:58:35.192Z,19.86
2022-10-22T12:01:26.167Z,20.08
2022-10-22T12:04:10.066Z,20.16
2022-10-22T12:06:54.429Z,20.22
2022-10-22T12:09:26.013Z,20.09
2022-10-22T12:11:55.630Z,20.15
2022-10-22T12:14:26.671Z,20.10
2022-10-22T12:16:58.010Z,19.94
2022-10-22T12:19:30.210Z,19.97
2022-10-22T12:22:00.976Z,19.95
2022-10-22T12:24:33.020Z,19.97
2022-10-22T12:27:01.989Z,20.00
2022-10-22T12:29:33.130Z,20.18
2022-10-22T12:32:04.521Z,20.02
2022-10-22T12:34:32.218Z,19.73
2022-10-22T12:36:59.963Z,19.57
2022-10-22T12:39:28.568Z,19.56
2022-10-22T12:41:56.408Z,19.54
2022-10-22T12:44:25.544Z,19.57
2022-10-22T12:46:56.150Z,19.61
2022-10-22T12:49:31.847Z,19.57
2022-10-22T12:52:03.887Z,19.67
2022-10-22T12:54:34.383Z,19.42
2022-10-22T12:57:03.104Z,19.52
2022-10-22T12:59:35.649Z,19.37
2022-10-22T13:02:06.779Z,19.30
2022-10-22T13:04:38.637Z,19.12
2022-10-22T13:07:19.919Z,19.15
2022-10-22T13:09:59.213Z,19.08
2022-10-22T13:12:28.442Z,18.93
2022-10-22T13:14:57.439Z,19.09
2022-10-22T13:17:40.314Z,19.02
2022-10-22T13:20:19.028Z,19.01
2022-10-22T13:23:00.197Z,19.15
2022-10-22T13:25:29.950Z,19.05
2022-10-22T13:28:00.060Z,19.25
2022-10-22T13:30:31.787Z,19.15
2022-10-22T13:33:01.100Z,18.69
2022-10-22T13:35:31.992Z,19.18
2022-10-22T13:38:00.028Z,19.09
2022-10-22T13:40:28.192Z,19.04
2022-10-22T13:42:55.822Z,18.86
2022-10-22T13:45:23.502Z,18.68
2022-10-22T13:47:55.369Z,18.48
2022-10-22T13:50:23.011Z,18.31
2022-10-22T13:52:53.583Z,18.24
2022-10-22T13:55:25.386Z,18.20
2022-10-22T13:57:54.491Z,18.40
2022-10-22T14:00:23.279Z,18.38
2022-10-22T14:02:56.061Z,18.48
2022-10-22T14:05:24.035Z,18.39
2022-10-22T14:07:52.253Z,17.84
2022-10-22T14:10:22.806Z,18.22
2022-10-22T14:12:53.443Z,18.34
2022-10-22T14:15:23.645Z,18.31
2022-10-22T14:17:56.322Z,18.44
2022-10-22T14:20:26.437Z,18.53
2022-10-22T14:22:54.564Z,18.60
2022-10-22T14:25:23.764Z,18.54
2022-10-22T14:27:51.884Z,18.55
2022-10-22T14:30:21.553Z,18.62
2022-10-22T14:32:50.257Z,18.80
2022-10-22T14:35:22.171Z,18.78
2022-10-22T14:37:49.901Z,18.49
2022-10-22T14:40:19.626Z,18.69
2022-10-22T14:42:49.009Z,18.76
2022-10-22T14:45:19.355Z,18.87
2022-10-22T14:47:46.995Z,18.81
2022-10-22T14:50:15.075Z,19.05
2022-10-22T14:52:44.424Z,18.88
2022-10-22T14:55:13.513Z,18.84
2022-10-22T14:57:41.724Z,19.08
2022-10-22T15:00:12.670Z,19.09
2022-10-22T15:02:40.532Z,18.92
2022-10-22T15:05:09.367Z,18.67
2022-10-22T15:07:37.697Z,18.63
2022-10-22T15:10:08.469Z,18.53
2022-10-22T15:12:36.131Z,18.51
2022-10-22T15:15:04.135Z,18.39
2022-10-22T15:17:31.832Z,18.31
2022-10-22T15:20:01.066Z,18.38
2022-10-22T15:22:31.658Z,18.54
2022-10-22T15:24:59.347Z,18.49
2022-10-22T15:27:28.369Z,18.32
2022-10-22T15:29:57.011Z,18.21
2022-10-22T15:32:24.665Z,18.19
2022-10-22T15:34:54.261Z,18.12
2022-10-22T15:37:22.708Z,18.33
2022-10-22T15:39:50.349Z,18.32
2022-10-22T15:42:18.475Z,18.04
2022-10-22T15:44:47.515Z,17.87
2022-10-22T15:47:15.109Z,17.78
2022-10-22T15:49:42.760Z,17.63
2022-10-22T15:52:10.727Z,17.60
2022-10-22T15:54:38.318Z,17.54
2022-10-22T15:57:08.830Z,17.32
2022-10-22T15:59:37.055Z,17.07
2022-10-22T16:02:07.219Z,16.89
2022-10-22T16:04:34.899Z,16.72
2022-10-22T16:07:02.532Z,16.54
2022-10-22T16:09:30.128Z,16.31
2022-10-22T16:11:57.880Z,16.00
2022-10-22T16:14:26.249Z,15.92
2022-10-22T16:16:55.802Z,15.64
2022-10-22T16:19:26.045Z,15.52
2022-10-22T16:21:56.274Z,15.50
2022-10-22T16:24:24.309Z,15.30
2022-10-22T16:26:53.141Z,15.33
2022-10-22T16:29:20.897Z,15.12
2022-10-22T16:31:48.556Z,15.06
2022-10-22T16:34:16.200Z,15.06
2022-10-22T16:36:45.183Z,14.86
2022-10-22T16:39:12.926Z,14.84
2022-10-22T16:41:40.665Z,14.80
2022-10-22T16:44:09.042Z,14.67
2022-10-22T16:46:38.396Z,14.71
2022-10-22T16:49:06.739Z,14.64
2022-10-22T16:51:35.303Z,14.58
2022-10-22T16:54:06.864Z,14.60
2022-10-22T16:56:37.508Z,14.50
2022-10-22T16:59:05.124Z,14.37
2022-10-22T17:01:35.761Z,14.35
2022-10-22T17:04:07.281Z,14.35
2022-10-22T17:06:35.001Z,14.35
2022-10-22T17:09:04.611Z,14.31
2022-10-22T17:11:36.274Z,14.23
2022-10-22T17:14:06.092Z,14.30
2022-10-22T17:16:33.740Z,14.26
2022-10-22T17:19:04.481Z,14.14
2022-10-22T17:21:32.183Z,14.06
2022-10-22T17:23:59.804Z,14.11
2022-10-22T17:26:28.972Z,14.09
2022-10-22T17:28:56.626Z,14.12
2022-10-22T17:31:26.184Z,13.91
2022-10-22T17:33:55.511Z,14.01
2022-10-22T17:36:24.710Z,13.85
2022-10-22T17:38:54.433Z,13.24
2022-10-22T17:41:24.737Z,13.86
2022-10-22T17:43:53.822Z,13.64
2022-10-22T17:46:23.166Z,13.87
2022-10-22T17:48:51.633Z,13.96
2022-10-22T17:51:20.044Z,13.83
2022-10-22T17:53:47.734Z,13.85
2022-10-22T17:56:16.870Z,13.81
2022-10-22T17:58:44.788Z,13.83
2022-10-22T18:01:22.527Z,13.87
2022-10-22T18:03:50.716Z,13.76
2022-10-22T18:06:18.463Z,13.75
2022-10-22T18:08:46.277Z,13.72
2022-10-22T18:11:17.047Z,13.70
2022-10-22T18:13:44.897Z,13.79
2022-10-22T18:16:13.304Z,13.70
2022-10-22T18:18:42.319Z,13.63
2022-10-22T18:21:09.945Z,13.74
2022-10-22T18:23:37.588Z,13.73
2022-10-22T18:26:05.902Z,13.57
2022-10-22T18:28:33.879Z,13.73
2022-10-22T18:31:06.338Z,13.78
2022-10-22T18:33:34.422Z,13.75
2022-10-22T18:36:05.897Z,13.69
2022-10-22T18:38:33.667Z,13.70
2022-10-22T18:41:01.277Z,13.63
2022-10-22T18:43:28.998Z,13.68
2022-10-22T18:45:56.610Z,13.69
2022-10-22T18:48:24.859Z,13.70
2022-10-22T18:51:00.584Z,13.63
2022-10-22T18:53:29.721Z,13.60
2022-10-22T18:55:57.523Z,13.54
2022-10-22T18:58:25.261Z,13.63
2022-10-22T19:00:52.974Z,13.58
2022-10-22T19:03:20.598Z,13.55
2022-10-22T19:05:50.309Z,13.57
2022-10-22T19:08:18.377Z,13.57
2022-10-22T19:10:48.226Z,13.58
2022-10-22T19:13:18.098Z,13.52
2022-10-22T19:15:45.744Z,13.54
2022-10-22T19:18:15.037Z,13.53
2022-10-22T19:20:44.274Z,13.36
2022-10-22T19:23:11.938Z,13.61
2022-10-22T19:25:39.887Z,13.62
2022-10-22T19:28:08.826Z,13.62
2022-10-22T19:30:36.702Z,13.65
2022-10-22T19:33:04.565Z,13.67
2022-10-22T19:35:32.485Z,13.55
2022-10-22T19:38:00.146Z,13.59
2022-10-22T19:40:28.287Z,13.66
2022-10-22T19:42:55.933Z,13.68
2022-10-22T19:45:24.834Z,13.69
2022-10-22T19:47:52.562Z,13.72
2022-10-22T19:50:20.358Z,13.77
2022-10-22T19:52:48.268Z,13.79
2022-10-22T19:55:16.397Z,13.82
2022-10-22T19:57:44.723Z,13.85
2022-10-22T20:00:13.636Z,13.82
2022-10-22T20:02:44.281Z,13.81
2022-10-22T20:05:32.516Z,13.75
2022-10-22T20:08:20.868Z,13.79
2022-10-22T20:11:12.302Z,13.77
2022-10-22T20:14:00.642Z,13.75
2022-10-22T20:16:48.965Z,13.81
2022-10-22T20:19:38.620Z,13.88
2022-10-22T20:22:26.861Z,13.97
2022-10-22T20:25:15.113Z,13.94
2022-10-22T20:28:03.458Z,13.93
2022-10-22T20:30:51.601Z,13.92
2022-10-22T20:33:40.142Z,13.92
2022-10-22T20:36:30.935Z,13.87
2022-10-22T20:39:18.856Z,13.79
2022-10-22T20:42:06.849Z,13.79
2022-10-22T20:44:54.800Z,13.74
2022-10-22T20:47:51.472Z,13.85
2022-10-22T20:50:46.174Z,13.81
2022-10-22T20:53:35.435Z,13.82
2022-10-22T20:56:23.614Z,13.78
2022-10-22T20:59:12.617Z,13.72
2022-10-22T21:02:01.665Z,13.74
2022-10-22T21:04:49.558Z,13.84
2022-10-22T21:07:37.463Z,13.87
2022-10-22T21:10:31.616Z,13.92
2022-10-22T21:13:20.490Z,13.95
2022-10-22T21:16:09.866Z,13.94
2022-10-22T21:18:57.875Z,13.93
2022-10-22T21:21:45.808Z,13.93
2022-10-22T21:24:33.711Z,13.97
2022-10-22T21:27:22.987Z,13.97
2022-10-22T21:30:11.850Z,13.96
2022-10-22T21:32:59.833Z,13.85
2022-10-22T21:35:52.858Z,13.92
2022-10-22T21:38:40.779Z,13.85
2022-10-22T21:41:28.675Z,13.84
2022-10-22T21:44:17.918Z,13.86
2022-10-22T21:47:05.942Z,13.80
2022-10-22T21:49:53.850Z,13.77
2022-10-22T21:52:41.734Z,13.78
2022-10-22T21:55:30.400Z,13.85
2022-10-22T21:58:18.317Z,13.92
2022-10-22T22:01:07.702Z,14.03
2022-10-22T22:03:55.832Z,14.05
2022-10-22T22:06:43.731Z,13.99
2022-10-22T22:09:31.612Z,13.99
2022-10-22T22:12:20.472Z,14.10
2022-10-22T22:15:09.705Z,14.13
2022-10-22T22:17:58.927Z,14.17
2022-10-22T22:20:46.901Z,14.22
2022-10-22T22:23:37.230Z,14.22
2022-10-22T22:26:29.555Z,13.58
2022-10-22T22:29:18.081Z,14.03
2022-10-22T22:32:06.382Z,13.94
2022-10-22T22:34:56.050Z,13.71
2022-10-22T22:37:44.122Z,13.66
2022-10-22T22:40:33.834Z,13.71
2022-10-22T22:43:21.947Z,13.56
2022-10-22T22:46:13.016Z,13.51
2022-10-22T22:49:01.060Z,13.40
2022-10-22T22:51:51.447Z,13.39
2022-10-22T22:54:39.303Z,13.38
2022-10-22T22:57:27.269Z,13.22
2022-10-22T23:00:15.845Z,13.28
2022-10-22T23:03:03.760Z,13.38
2022-10-22T23:05:51.670Z,13.47
2022-10-22T23:08:41.424Z,13.48
2022-10-22T23:11:29.513Z,13.56
2022-10-22T23:14:19.587Z,13.77
2022-10-22T23:17:07.455Z,13.76
2022-10-22T23:19:55.599Z,13.78
2022-10-22T23:22:43.800Z,13.82
2022-10-22T23:25:33.309Z,13.89
2022-10-22T23:28:21.267Z,13.91
2022-10-22T23:31:11.993Z,13.88
2022-10-22T23:34:00.076Z,13.89
2022-10-22T23:36:48.790Z,13.87
2022-10-22T23:39:36.751Z,13.80
2022-10-22T23:42:26.139Z,13.65
2022-10-22T23:45:14.119Z,13.55
2022-10-22T23:48:02.117Z,13.44
2022-10-22T23:50:50.308Z,13.59
2022-10-22T23:53:38.808Z,13.58
2022-10-22T23:56:28.145Z,13.53
2022-10-22T23:59:17.372Z,13.52
